sensor_id;sensor_type;location;lat;lon;timestamp;temperature;humidity
3281;DHT22;1652;51.318;6.202;2023-10-19T00:00:34;11.50;99.90
3281;DHT22;1652;51.318;6.202;2023-10-19T00:03:03;11.50;99.90
3281;DHT22;1652;51.318;6.202;2023-10-19T00:05:30;11.50;99.90
3281;DHT22;1652;51.318;6.202;2023-10-19T00:08:00;11.60;99.90
3281;DHT22;1652;51.318;6.202;2023-10-19T00:10:32;11.60;99.90
3281;DHT22;1652;51.318;6.202;2023-10-19T00:13:02;11.50;99.90
3281;DHT22;1652;51.318;6.202;2023-10-19T00:15:32;11.60;99.90
3281;DHT22;1652;51.318;6.202;2023-10-19T00:18:01;11.60;99.90
3281;DHT22;1652;51.318;6.202;2023-10-19T00:20:46;11.70;99.90
3281;DHT22;1652;51.318;6.202;2023-10-19T00:23:21;11.60;99.90
3281;DHT22;1652;51.318;6.202;2023-10-19T00:26:00;11.70;99.90
3281;DHT22;1652;51.318;6.202;2023-10-19T00:28:31;11.70;99.90
3281;DHT22;1652;51.318;6.202;2023-10-19T00:54:58;11.70;99.90
3281;DHT22;1652;51.318;6.202;2023-10-19T00:57:25;11.70;99.90
3281;DHT22;1652;51.318;6.202;2023-10-19T01:00:03;11.70;99.90
3281;DHT22;1652;51.318;6.202;2023-10-19T01:02:39;11.70;99.90
3281;DHT22;1652;51.318;6.202;2023-10-19T01:05:14;11.80;99.90
3281;DHT22;1652;51.318;6.202;2023-10-19T01:07:41;11.70;99.90
3281;DHT22;1652;51.318;6.202;2023-10-19T01:10:09;11.80;99.90
3281;DHT22;1652;51.318;6.202;2023-10-19T01:12:39;11.80;99.90
3281;DHT22;1652;51.318;6.202;2023-10-19T01:17:46;11.80;99.90
3281;DHT22;1652;51.318;6.202;2023-10-19T01:20:16;11.90;99.90
3281;DHT22;1652;51.318;6.202;2023-10-19T01:23:04;11.90;99.90
3281;DHT22;1652;51.318;6.202;2023-10-19T01:28:17;11.90;99.90
3281;DHT22;1652;51.318;6.202;2023-10-19T01:30:45;11.80;99.90
3281;DHT22;1652;51.318;6.202;2023-10-19T01:33:13;11.90;99.90
3281;DHT22;1652;51.318;6.202;2023-10-19T01:35:42;11.90;99.90
3281;DHT22;1652;51.318;6.202;2023-10-19T01:38:28;11.90;99.90
3281;DHT22;1652;51.318;6.202;2023-10-19T01:40:59;11.90;99.90
3281;DHT22;1652;51.318;6.202;2023-10-19T01:43:27;12.00;99.90
3281;DHT22;1652;51.318;6.202;2023-10-19T01:45:58;12.00;99.90
3281;DHT22;1652;51.318;6.202;2023-10-19T01:48:31;12.00;99.90
3281;DHT22;1652;51.318;6.202;2023-10-19T01:51:03;12.00;99.90
3281;DHT22;1652;51.318;6.202;2023-10-19T01:53:33;12.00;99.90
3281;DHT22;1652;51.318;6.202;2023-10-19T01:56:01;12.10;99.90
3281;DHT22;1652;51.318;6.202;2023-10-19T01:58:32;12.00;99.90
3281;DHT22;1652;51.318;6.202;2023-10-19T02:01:04;12.10;99.90
3281;DHT22;1652;51.318;6.202;2023-10-19T02:03:35;12.10;99.90
3281;DHT22;1652;51.318;6.202;2023-10-19T02:06:03;12.10;99.90
3281;DHT22;1652;51.318;6.202;2023-10-19T02:08:51;12.10;99.90
3281;DHT22;1652;51.318;6.202;2023-10-19T02:11:25;12.20;99.90
3281;DHT22;1652;51.318;6.202;2023-10-19T02:13:56;12.30;99.90
3281;DHT22;1652;51.318;6.202;2023-10-19T02:16:31;12.30;99.90
3281;DHT22;1652;51.318;6.202;2023-10-19T02:18:59;12.30;99.90
3281;DHT22;1652;51.318;6.202;2023-10-19T02:21:28;12.30;99.90
3281;DHT22;1652;51.318;6.202;2023-10-19T02:23:59;12.40;99.90
3281;DHT22;1652;51.318;6.202;2023-10-19T02:26:26;12.40;99.90
3281;DHT22;1652;51.318;6.202;2023-10-19T02:28:54;12.40;99.90
3281;DHT22;1652;51.318;6.202;2023-10-19T02:31:23;12.50;99.90
3281;DHT22;1652;51.318;6.202;2023-10-19T02:33:53;12.50;99.90
3281;DHT22;1652;51.318;6.202;2023-10-19T02:36:27;12.60;99.90
3281;DHT22;1652;51.318;6.202;2023-10-19T02:38:59;12.60;99.90
3281;DHT22;1652;51.318;6.202;2023-10-19T02:41:27;12.60;99.90
3281;DHT22;1652;51.318;6.202;2023-10-19T02:43:54;12.60;99.90
3281;DHT22;1652;51.318;6.202;2023-10-19T02:46:32;12.60;99.90
3281;DHT22;1652;51.318;6.202;2023-10-19T02:49:03;12.60;99.90
3281;DHT22;1652;51.318;6.202;2023-10-19T02:51:30;12.60;99.90
3281;DHT22;1652;51.318;6.202;2023-10-19T02:53:57;12.70;99.90
3281;DHT22;1652;51.318;6.202;2023-10-19T02:56:29;12.70;99.90
3281;DHT22;1652;51.318;6.202;2023-10-19T02:58:56;12.80;99.90
3281;DHT22;1652;51.318;6.202;2023-10-19T03:01:32;12.80;99.90
3281;DHT22;1652;51.318;6.202;2023-10-19T03:04:03;12.70;99.90
3281;DHT22;1652;51.318;6.202;2023-10-19T03:06:32;12.70;99.90
3281;DHT22;1652;51.318;6.202;2023-10-19T03:09:04;12.70;99.90
3281;DHT22;1652;51.318;6.202;2023-10-19T03:11:38;12.70;99.90
3281;DHT22;1652;51.318;6.202;2023-10-19T03:14:08;12.70;99.90
3281;DHT22;1652;51.318;6.202;2023-10-19T03:16:38;12.80;99.90
3281;DHT22;1652;51.318;6.202;2023-10-19T03:19:08;12.70;99.90
3281;DHT22;1652;51.318;6.202;2023-10-19T03:21:35;12.80;99.90
3281;DHT22;1652;51.318;6.202;2023-10-19T03:24:12;12.80;99.90
3281;DHT22;1652;51.318;6.202;2023-10-19T03:26:40;12.80;99.90
3281;DHT22;1652;51.318;6.202;2023-10-19T03:29:18;12.80;99.90
3281;DHT22;1652;51.318;6.202;2023-10-19T03:31:58;12.80;99.90
3281;DHT22;1652;51.318;6.202;2023-10-19T03:34:28;12.80;99.90
3281;DHT22;1652;51.318;6.202;2023-10-19T03:37:02;12.90;99.90
3281;DHT22;1652;51.318;6.202;2023-10-19T03:39:34;12.80;99.90
3281;DHT22;1652;51.318;6.202;2023-10-19T03:42:05;12.90;99.90
3281;DHT22;1652;51.318;6.202;2023-10-19T03:44:33;12.90;99.90
3281;DHT22;1652;51.318;6.202;2023-10-19T03:47:16;12.90;99.90
3281;DHT22;1652;51.318;6.202;2023-10-19T03:49:53;12.80;99.90
3281;DHT22;1652;51.318;6.202;2023-10-19T03:52:20;12.80;99.90
3281;DHT22;1652;51.318;6.202;2023-10-19T03:54:48;12.80;99.90
3281;DHT22;1652;51.318;6.202;2023-10-19T03:57:18;12.90;99.90
3281;DHT22;1652;51.318;6.202;2023-10-19T03:59:51;12.90;99.90
3281;DHT22;1652;51.318;6.202;2023-10-19T04:02:28;12.90;99.90
3281;DHT22;1652;51.318;6.202;2023-10-19T04:04:56;12.80;99.90
3281;DHT22;1652;51.318;6.202;2023-10-19T04:07:24;12.80;99.90
3281;DHT22;1652;51.318;6.202;2023-10-19T04:09:58;12.80;99.90
3281;DHT22;1652;51.318;6.202;2023-10-19T04:12:31;12.90;99.90
3281;DHT22;1652;51.318;6.202;2023-10-19T04:14:59;12.90;99.90
3281;DHT22;1652;51.318;6.202;2023-10-19T04:17:41;12.90;99.90
3281;DHT22;1652;51.318;6.202;2023-10-19T04:20:18;13.00;99.90
3281;DHT22;1652;51.318;6.202;2023-10-19T04:22:48;13.00;99.90
3281;DHT22;1652;51.318;6.202;2023-10-19T04:25:18;13.00;99.90
3281;DHT22;1652;51.318;6.202;2023-10-19T04:27:47;13.00;99.90
3281;DHT22;1652;51.318;6.202;2023-10-19T04:30:15;13.10;99.90
3281;DHT22;1652;51.318;6.202;2023-10-19T04:32:43;13.10;99.90
3281;DHT22;1652;51.318;6.202;2023-10-19T04:35:12;13.30;99.90
3281;DHT22;1652;51.318;6.202;2023-10-19T04:37:41;13.30;99.90
3281;DHT22;1652;51.318;6.202;2023-10-19T04:40:10;13.30;99.90
3281;DHT22;1652;51.318;6.202;2023-10-19T04:42:40;13.30;99.90
3281;DHT22;1652;51.318;6.202;2023-10-19T04:45:07;13.30;99.90
3281;DHT22;1652;51.318;6.202;2023-10-19T04:47:34;13.30;99.90
3281;DHT22;1652;51.318;6.202;2023-10-19T04:50:03;13.40;99.90
3281;DHT22;1652;51.318;6.202;2023-10-19T04:55:07;13.50;99.90
3281;DHT22;1652;51.318;6.202;2023-10-19T04:57:34;13.60;99.90
3281;DHT22;1652;51.318;6.202;2023-10-19T05:00:02;13.70;99.90
3281;DHT22;1652;51.318;6.202;2023-10-19T05:02:30;13.80;99.90
3281;DHT22;1652;51.318;6.202;2023-10-19T05:04:57;13.80;99.90
3281;DHT22;1652;51.318;6.202;2023-10-19T05:07:24;13.80;99.90
3281;DHT22;1652;51.318;6.202;2023-10-19T05:09:51;13.90;99.90
3281;DHT22;1652;51.318;6.202;2023-10-19T05:12:20;13.80;99.90
3281;DHT22;1652;51.318;6.202;2023-10-19T05:14:48;13.80;99.90
3281;DHT22;1652;51.318;6.202;2023-10-19T05:17:15;13.80;99.90
3281;DHT22;1652;51.318;6.202;2023-10-19T05:19:42;13.80;99.90
3281;DHT22;1652;51.318;6.202;2023-10-19T05:22:09;13.80;99.90
3281;DHT22;1652;51.318;6.202;2023-10-19T05:24:36;13.70;99.90
3281;DHT22;1652;51.318;6.202;2023-10-19T05:27:03;13.70;99.90
3281;DHT22;1652;51.318;6.202;2023-10-19T05:29:31;13.50;99.90
3281;DHT22;1652;51.318;6.202;2023-10-19T05:32:03;13.60;99.90
3281;DHT22;1652;51.318;6.202;2023-10-19T05:34:30;13.60;99.90
3281;DHT22;1652;51.318;6.202;2023-10-19T05:36:59;13.50;99.90
3281;DHT22;1652;51.318;6.202;2023-10-19T05:39:29;13.40;99.90
3281;DHT22;1652;51.318;6.202;2023-10-19T05:41:58;13.30;99.90
3281;DHT22;1652;51.318;6.202;2023-10-19T05:44:29;13.30;99.90
3281;DHT22;1652;51.318;6.202;2023-10-19T05:46:58;13.30;99.90
3281;DHT22;1652;51.318;6.202;2023-10-19T05:49:26;13.30;99.90
3281;DHT22;1652;51.318;6.202;2023-10-19T05:51:55;13.40;99.90
3281;DHT22;1652;51.318;6.202;2023-10-19T05:54:22;13.40;99.90
3281;DHT22;1652;51.318;6.202;2023-10-19T05:56:51;13.40;99.90
3281;DHT22;1652;51.318;6.202;2023-10-19T05:59:21;13.40;99.90
3281;DHT22;1652;51.318;6.202;2023-10-19T06:01:48;13.40;99.90
3281;DHT22;1652;51.318;6.202;2023-10-19T06:04:15;13.40;99.90
3281;DHT22;1652;51.318;6.202;2023-10-19T06:06:47;13.40;99.90
3281;DHT22;1652;51.318;6.202;2023-10-19T06:09:15;13.40;99.90
3281;DHT22;1652;51.318;6.202;2023-10-19T06:11:44;13.30;99.90
3281;DHT22;1652;51.318;6.202;2023-10-19T06:14:11;13.30;99.90
3281;DHT22;1652;51.318;6.202;2023-10-19T06:16:38;13.40;99.90
3281;DHT22;1652;51.318;6.202;2023-10-19T06:19:05;13.40;99.90
3281;DHT22;1652;51.318;6.202;2023-10-19T06:21:34;13.40;99.90
3281;DHT22;1652;51.318;6.202;2023-10-19T06:24:01;13.40;99.90
3281;DHT22;1652;51.318;6.202;2023-10-19T06:26:29;13.50;99.90
3281;DHT22;1652;51.318;6.202;2023-10-19T06:28:56;13.50;99.90
3281;DHT22;1652;51.318;6.202;2023-10-19T06:31:26;13.60;99.90
3281;DHT22;1652;51.318;6.202;2023-10-19T06:33:56;13.50;99.90
3281;DHT22;1652;51.318;6.202;2023-10-19T06:36:28;13.50;99.90
3281;DHT22;1652;51.318;6.202;2023-10-19T06:38:56;13.60;99.90
3281;DHT22;1652;51.318;6.202;2023-10-19T06:41:23;13.80;99.90
3281;DHT22;1652;51.318;6.202;2023-10-19T06:43:50;13.80;99.90
3281;DHT22;1652;51.318;6.202;2023-10-19T06:46:17;13.90;99.90
3281;DHT22;1652;51.318;6.202;2023-10-19T06:48:44;13.90;99.90
3281;DHT22;1652;51.318;6.202;2023-10-19T06:51:12;14.00;99.90
3281;DHT22;1652;51.318;6.202;2023-10-19T06:53:39;14.00;99.90
3281;DHT22;1652;51.318;6.202;2023-10-19T06:56:06;13.90;99.90
3281;DHT22;1652;51.318;6.202;2023-10-19T06:58:34;14.00;99.90
3281;DHT22;1652;51.318;6.202;2023-10-19T07:01:01;14.10;99.90
3281;DHT22;1652;51.318;6.202;2023-10-19T07:03:35;14.30;99.90
3281;DHT22;1652;51.318;6.202;2023-10-19T07:06:02;14.30;99.90
3281;DHT22;1652;51.318;6.202;2023-10-19T07:08:36;14.30;99.90
3281;DHT22;1652;51.318;6.202;2023-10-19T07:11:03;14.40;99.90
3281;DHT22;1652;51.318;6.202;2023-10-19T07:13:30;14.40;99.90
3281;DHT22;1652;51.318;6.202;2023-10-19T07:16:00;14.50;99.90
3281;DHT22;1652;51.318;6.202;2023-10-19T07:18:27;14.60;99.90
3281;DHT22;1652;51.318;6.202;2023-10-19T07:20:55;14.60;99.90
3281;DHT22;1652;51.318;6.202;2023-10-19T07:23:30;14.60;99.90
3281;DHT22;1652;51.318;6.202;2023-10-19T07:25:58;14.70;99.90
3281;DHT22;1652;51.318;6.202;2023-10-19T07:28:28;14.60;99.90
3281;DHT22;1652;51.318;6.202;2023-10-19T07:30:57;14.70;99.90
3281;DHT22;1652;51.318;6.202;2023-10-19T07:33:24;14.70;99.90
3281;DHT22;1652;51.318;6.202;2023-10-19T07:35:51;14.80;99.90
3281;DHT22;1652;51.318;6.202;2023-10-19T07:38:24;14.90;99.90
3281;DHT22;1652;51.318;6.202;2023-10-19T07:40:52;14.90;99.90
3281;DHT22;1652;51.318;6.202;2023-10-19T07:43:20;15.00;99.90
3281;DHT22;1652;51.318;6.202;2023-10-19T07:45:49;15.20;99.90
3281;DHT22;1652;51.318;6.202;2023-10-19T07:48:16;15.30;99.90
3281;DHT22;1652;51.318;6.202;2023-10-19T07:50:44;15.50;99.90
3281;DHT22;1652;51.318;6.202;2023-10-19T07:53:11;15.50;99.90
3281;DHT22;1652;51.318;6.202;2023-10-19T07:55:38;15.60;99.90
3281;DHT22;1652;51.318;6.202;2023-10-19T07:58:06;15.60;99.90
3281;DHT22;1652;51.318;6.202;2023-10-19T08:00:34;15.60;99.90
3281;DHT22;1652;51.318;6.202;2023-10-19T08:03:02;15.60;99.90
3281;DHT22;1652;51.318;6.202;2023-10-19T08:05:30;15.70;99.90
3281;DHT22;1652;51.318;6.202;2023-10-19T08:07:57;15.80;99.90
3281;DHT22;1652;51.318;6.202;2023-10-19T08:10:27;15.60;99.90
3281;DHT22;1652;51.318;6.202;2023-10-19T08:12:55;15.70;99.90
3281;DHT22;1652;51.318;6.202;2023-10-19T08:15:22;15.60;99.90
3281;DHT22;1652;51.318;6.202;2023-10-19T08:17:52;15.70;99.90
3281;DHT22;1652;51.318;6.202;2023-10-19T08:20:22;15.80;99.90
3281;DHT22;1652;51.318;6.202;2023-10-19T08:22:54;16.00;99.90
3281;DHT22;1652;51.318;6.202;2023-10-19T08:25:27;16.10;99.90
3281;DHT22;1652;51.318;6.202;2023-10-19T08:28:09;16.10;99.90
3281;DHT22;1652;51.318;6.202;2023-10-19T08:30:37;16.20;99.90
3281;DHT22;1652;51.318;6.202;2023-10-19T08:33:04;16.30;99.90
3281;DHT22;1652;51.318;6.202;2023-10-19T08:35:34;16.30;99.90
3281;DHT22;1652;51.318;6.202;2023-10-19T08:38:02;16.40;99.90
3281;DHT22;1652;51.318;6.202;2023-10-19T08:40:37;16.40;99.90
3281;DHT22;1652;51.318;6.202;2023-10-19T08:43:05;16.60;99.90
3281;DHT22;1652;51.318;6.202;2023-10-19T08:45:34;16.60;99.90
3281;DHT22;1652;51.318;6.202;2023-10-19T08:48:02;16.60;99.90
3281;DHT22;1652;51.318;6.202;2023-10-19T08:50:32;16.60;99.90
3281;DHT22;1652;51.318;6.202;2023-10-19T08:53:09;16.70;99.90
3281;DHT22;1652;51.318;6.202;2023-10-19T08:55:37;17.10;99.90
3281;DHT22;1652;51.318;6.202;2023-10-19T08:58:15;17.40;99.90
3281;DHT22;1652;51.318;6.202;2023-10-19T09:00:51;17.70;99.90
3281;DHT22;1652;51.318;6.202;2023-10-19T09:03:26;17.80;99.90
3281;DHT22;1652;51.318;6.202;2023-10-19T09:05:54;17.80;99.90
3281;DHT22;1652;51.318;6.202;2023-10-19T09:08:21;17.80;99.90
3281;DHT22;1652;51.318;6.202;2023-10-19T09:10:50;17.70;99.90
3281;DHT22;1652;51.318;6.202;2023-10-19T09:13:21;17.70;99.90
3281;DHT22;1652;51.318;6.202;2023-10-19T09:15:51;17.60;99.90
3281;DHT22;1652;51.318;6.202;2023-10-19T09:18:24;17.50;99.90
3281;DHT22;1652;51.318;6.202;2023-10-19T09:20:56;17.40;99.90
3281;DHT22;1652;51.318;6.202;2023-10-19T09:23:30;17.40;99.90
3281;DHT22;1652;51.318;6.202;2023-10-19T09:25:59;17.30;99.90
3281;DHT22;1652;51.318;6.202;2023-10-19T09:28:31;17.40;99.90
3281;DHT22;1652;51.318;6.202;2023-10-19T09:31:01;17.40;99.90
3281;DHT22;1652;51.318;6.202;2023-10-19T09:33:28;17.50;99.90
3281;DHT22;1652;51.318;6.202;2023-10-19T09:36:03;17.50;99.90
3281;DHT22;1652;51.318;6.202;2023-10-19T09:38:46;17.60;99.90
3281;DHT22;1652;51.318;6.202;2023-10-19T09:41:18;17.70;99.90
3281;DHT22;1652;51.318;6.202;2023-10-19T09:43:49;17.80;99.90
3281;DHT22;1652;51.318;6.202;2023-10-19T09:46:37;17.90;99.90
3281;DHT22;1652;51.318;6.202;2023-10-19T09:49:07;18.00;99.90
3281;DHT22;1652;51.318;6.202;2023-10-19T09:51:35;18.10;99.90
3281;DHT22;1652;51.318;6.202;2023-10-19T09:56:35;18.30;99.90
3281;DHT22;1652;51.318;6.202;2023-10-19T09:59:05;18.40;99.90
3281;DHT22;1652;51.318;6.202;2023-10-19T10:02:12;18.40;99.90
3281;DHT22;1652;51.318;6.202;2023-10-19T10:04:41;18.30;99.90
3281;DHT22;1652;51.318;6.202;2023-10-19T10:07:09;18.50;99.90
3281;DHT22;1652;51.318;6.202;2023-10-19T10:09:39;18.40;99.90
3281;DHT22;1652;51.318;6.202;2023-10-19T10:12:20;18.40;99.90
3281;DHT22;1652;51.318;6.202;2023-10-19T10:15:01;18.40;99.90
3281;DHT22;1652;51.318;6.202;2023-10-19T10:17:30;18.50;99.90
3281;DHT22;1652;51.318;6.202;2023-10-19T10:22:42;18.60;99.90
3281;DHT22;1652;51.318;6.202;2023-10-19T10:25:25;18.70;99.90
3281;DHT22;1652;51.318;6.202;2023-10-19T10:27:56;18.80;99.90
3281;DHT22;1652;51.318;6.202;2023-10-19T10:30:23;18.80;99.90
3281;DHT22;1652;51.318;6.202;2023-10-19T10:32:52;18.80;99.90
3281;DHT22;1652;51.318;6.202;2023-10-19T10:38:10;19.10;99.90
3281;DHT22;1652;51.318;6.202;2023-10-19T10:40:43;19.10;99.90
3281;DHT22;1652;51.318;6.202;2023-10-19T10:43:11;19.30;99.90
3281;DHT22;1652;51.318;6.202;2023-10-19T10:45:38;19.40;99.90
3281;DHT22;1652;51.318;6.202;2023-10-19T10:48:15;19.40;99.90
3281;DHT22;1652;51.318;6.202;2023-10-19T10:50:42;19.50;99.90
3281;DHT22;1652;51.318;6.202;2023-10-19T10:53:11;19.50;99.90
3281;DHT22;1652;51.318;6.202;2023-10-19T10:55:42;19.40;99.90
3281;DHT22;1652;51.318;6.202;2023-10-19T10:58:14;19.50;99.90
3281;DHT22;1652;51.318;6.202;2023-10-19T11:00:46;19.30;99.90
3281;DHT22;1652;51.318;6.202;2023-10-19T11:03:18;19.20;99.90
3281;DHT22;1652;51.318;6.202;2023-10-19T11:05:45;19.20;99.90
3281;DHT22;1652;51.318;6.202;2023-10-19T11:08:14;19.00;99.90
3281;DHT22;1652;51.318;6.202;2023-10-19T11:10:47;18.90;99.90
3281;DHT22;1652;51.318;6.202;2023-10-19T11:13:17;18.70;99.90
3281;DHT22;1652;51.318;6.202;2023-10-19T11:15:51;18.70;99.90
3281;DHT22;1652;51.318;6.202;2023-10-19T11:21:07;18.40;99.90
3281;DHT22;1652;51.318;6.202;2023-10-19T11:23:47;18.30;99.90
3281;DHT22;1652;51.318;6.202;2023-10-19T11:26:20;18.30;99.90
3281;DHT22;1652;51.318;6.202;2023-10-19T11:28:57;18.30;99.90
3281;DHT22;1652;51.318;6.202;2023-10-19T11:31:24;18.40;99.90
3281;DHT22;1652;51.318;6.202;2023-10-19T11:33:52;18.50;99.90
3281;DHT22;1652;51.318;6.202;2023-10-19T11:36:22;18.60;99.90
3281;DHT22;1652;51.318;6.202;2023-10-19T11:38:52;18.80;99.90
3281;DHT22;1652;51.318;6.202;2023-10-19T11:41:19;18.90;99.90
3281;DHT22;1652;51.318;6.202;2023-10-19T11:43:47;19.00;99.90
3281;DHT22;1652;51.318;6.202;2023-10-19T11:46:15;19.00;99.90
3281;DHT22;1652;51.318;6.202;2023-10-19T11:48:45;19.10;99.90
3281;DHT22;1652;51.318;6.202;2023-10-19T11:51:13;19.10;99.90
3281;DHT22;1652;51.318;6.202;2023-10-19T11:53:42;18.90;99.90
3281;DHT22;1652;51.318;6.202;2023-10-19T11:56:11;18.80;99.90
3281;DHT22;1652;51.318;6.202;2023-10-19T11:58:40;18.70;99.90
3281;DHT22;1652;51.318;6.202;2023-10-19T12:01:10;18.40;99.90
3281;DHT22;1652;51.318;6.202;2023-10-19T12:03:40;18.30;99.90
3281;DHT22;1652;51.318;6.202;2023-10-19T12:06:09;18.40;99.90
3281;DHT22;1652;51.318;6.202;2023-10-19T12:08:38;18.50;99.90
3281;DHT22;1652;51.318;6.202;2023-10-19T12:11:06;18.60;99.90
3281;DHT22;1652;51.318;6.202;2023-10-19T12:13:43;18.70;99.90
3281;DHT22;1652;51.318;6.202;2023-10-19T12:16:14;18.80;99.90
3281;DHT22;1652;51.318;6.202;2023-10-19T12:18:43;18.80;99.90
3281;DHT22;1652;51.318;6.202;2023-10-19T12:21:11;18.80;99.90
3281;DHT22;1652;51.318;6.202;2023-10-19T12:23:42;18.70;99.90
3281;DHT22;1652;51.318;6.202;2023-10-19T12:26:18;18.70;99.90
3281;DHT22;1652;51.318;6.202;2023-10-19T12:28:46;18.60;99.90
3281;DHT22;1652;51.318;6.202;2023-10-19T12:31:16;18.60;99.90
3281;DHT22;1652;51.318;6.202;2023-10-19T12:33:46;18.60;99.90
3281;DHT22;1652;51.318;6.202;2023-10-19T12:36:13;18.60;99.90
3281;DHT22;1652;51.318;6.202;2023-10-19T12:38:50;18.60;99.90
3281;DHT22;1652;51.318;6.202;2023-10-19T12:41:21;18.70;99.90
3281;DHT22;1652;51.318;6.202;2023-10-19T12:43:48;18.70;99.90
3281;DHT22;1652;51.318;6.202;2023-10-19T12:46:19;18.60;99.90
3281;DHT22;1652;51.318;6.202;2023-10-19T12:48:46;18.70;99.90
3281;DHT22;1652;51.318;6.202;2023-10-19T12:51:16;18.70;99.90
3281;DHT22;1652;51.318;6.202;2023-10-19T12:53:51;18.70;99.90
3281;DHT22;1652;51.318;6.202;2023-10-19T12:56:19;18.80;99.90
3281;DHT22;1652;51.318;6.202;2023-10-19T12:58:46;18.80;99.90
3281;DHT22;1652;51.318;6.202;2023-10-19T13:01:15;18.80;99.90
3281;DHT22;1652;51.318;6.202;2023-10-19T13:03:47;18.70;99.90
3281;DHT22;1652;51.318;6.202;2023-10-19T13:06:17;18.70;99.90
3281;DHT22;1652;51.318;6.202;2023-10-19T13:08:44;18.70;99.90
3281;DHT22;1652;51.318;6.202;2023-10-19T13:11:11;18.60;99.90
3281;DHT22;1652;51.318;6.202;2023-10-19T13:13:45;18.70;99.90
3281;DHT22;1652;51.318;6.202;2023-10-19T13:16:12;18.70;99.90
3281;DHT22;1652;51.318;6.202;2023-10-19T13:18:40;18.60;99.90
3281;DHT22;1652;51.318;6.202;2023-10-19T13:21:07;18.50;99.90
3281;DHT22;1652;51.318;6.202;2023-10-19T13:23:42;18.40;99.90
3281;DHT22;1652;51.318;6.202;2023-10-19T13:26:10;18.30;99.90
3281;DHT22;1652;51.318;6.202;2023-10-19T13:28:43;18.30;99.90
3281;DHT22;1652;51.318;6.202;2023-10-19T13:31:11;18.20;99.90
3281;DHT22;1652;51.318;6.202;2023-10-19T13:33:42;18.20;99.90
3281;DHT22;1652;51.318;6.202;2023-10-19T13:36:11;18.10;99.90
3281;DHT22;1652;51.318;6.202;2023-10-19T13:38:40;18.00;99.90
3281;DHT22;1652;51.318;6.202;2023-10-19T13:41:07;17.90;99.90
3281;DHT22;1652;51.318;6.202;2023-10-19T13:43:39;18.00;99.90
3281;DHT22;1652;51.318;6.202;2023-10-19T13:46:06;18.00;99.90
3281;DHT22;1652;51.318;6.202;2023-10-19T13:48:33;17.90;99.90
3281;DHT22;1652;51.318;6.202;2023-10-19T13:51:00;17.90;99.90
3281;DHT22;1652;51.318;6.202;2023-10-19T13:53:27;17.90;99.90
3281;DHT22;1652;51.318;6.202;2023-10-19T13:55:54;17.90;99.90
3281;DHT22;1652;51.318;6.202;2023-10-19T13:58:21;17.80;99.90
3281;DHT22;1652;51.318;6.202;2023-10-19T14:00:49;17.70;99.90
3281;DHT22;1652;51.318;6.202;2023-10-19T14:03:16;17.60;99.90
3281;DHT22;1652;51.318;6.202;2023-10-19T14:05:45;17.60;99.90
3281;DHT22;1652;51.318;6.202;2023-10-19T14:08:16;17.50;99.90
3281;DHT22;1652;51.318;6.202;2023-10-19T14:10:44;17.50;99.90
3281;DHT22;1652;51.318;6.202;2023-10-19T14:13:11;17.40;99.90
3281;DHT22;1652;51.318;6.202;2023-10-19T14:15:39;17.30;99.90
3281;DHT22;1652;51.318;6.202;2023-10-19T14:18:06;17.30;99.90
3281;DHT22;1652;51.318;6.202;2023-10-19T14:20:33;17.10;99.90
3281;DHT22;1652;51.318;6.202;2023-10-19T14:23:02;17.10;99.90
3281;DHT22;1652;51.318;6.202;2023-10-19T14:25:35;17.10;99.90
3281;DHT22;1652;51.318;6.202;2023-10-19T14:28:03;17.10;99.90
3281;DHT22;1652;51.318;6.202;2023-10-19T14:30:33;17.10;99.90
3281;DHT22;1652;51.318;6.202;2023-10-19T14:33:01;17.10;99.90
3281;DHT22;1652;51.318;6.202;2023-10-19T14:35:28;17.10;99.90
3281;DHT22;1652;51.318;6.202;2023-10-19T14:37:56;17.10;99.90
3281;DHT22;1652;51.318;6.202;2023-10-19T14:40:25;17.10;99.90
3281;DHT22;1652;51.318;6.202;2023-10-19T14:42:53;17.10;99.90
3281;DHT22;1652;51.318;6.202;2023-10-19T14:45:23;17.10;99.90
3281;DHT22;1652;51.318;6.202;2023-10-19T14:47:56;17.10;99.90
3281;DHT22;1652;51.318;6.202;2023-10-19T14:50:30;17.00;99.90
3281;DHT22;1652;51.318;6.202;2023-10-19T14:52:57;17.00;99.90
3281;DHT22;1652;51.318;6.202;2023-10-19T14:55:25;17.00;99.90
3281;DHT22;1652;51.318;6.202;2023-10-19T14:57:53;17.10;99.90
3281;DHT22;1652;51.318;6.202;2023-10-19T15:00:25;17.10;99.90
3281;DHT22;1652;51.318;6.202;2023-10-19T15:02:54;17.00;99.90
3281;DHT22;1652;51.318;6.202;2023-10-19T15:05:28;17.00;99.90
3281;DHT22;1652;51.318;6.202;2023-10-19T15:07:55;16.90;99.90
3281;DHT22;1652;51.318;6.202;2023-10-19T15:10:26;17.00;99.90
3281;DHT22;1652;51.318;6.202;2023-10-19T15:12:55;17.10;99.90
3281;DHT22;1652;51.318;6.202;2023-10-19T15:15:23;17.10;99.90
3281;DHT22;1652;51.318;6.202;2023-10-19T15:17:50;17.10;99.90
3281;DHT22;1652;51.318;6.202;2023-10-19T15:20:24;17.20;99.90
3281;DHT22;1652;51.318;6.202;2023-10-19T15:22:52;17.20;99.90
3281;DHT22;1652;51.318;6.202;2023-10-19T15:25:22;17.10;99.90
3281;DHT22;1652;51.318;6.202;2023-10-19T15:27:52;17.10;99.90
3281;DHT22;1652;51.318;6.202;2023-10-19T15:30:20;17.10;99.90
3281;DHT22;1652;51.318;6.202;2023-10-19T15:32:49;17.10;99.90
3281;DHT22;1652;51.318;6.202;2023-10-19T15:35:17;17.10;99.90
3281;DHT22;1652;51.318;6.202;2023-10-19T15:37:52;17.00;99.90
3281;DHT22;1652;51.318;6.202;2023-10-19T15:40:24;17.00;99.90
3281;DHT22;1652;51.318;6.202;2023-10-19T15:42:52;16.90;99.90
3281;DHT22;1652;51.318;6.202;2023-10-19T15:45:25;16.90;99.90
3281;DHT22;1652;51.318;6.202;2023-10-19T15:47:53;16.90;99.90
3281;DHT22;1652;51.318;6.202;2023-10-19T15:50:22;16.90;99.90
3281;DHT22;1652;51.318;6.202;2023-10-19T15:52:49;16.90;99.90
3281;DHT22;1652;51.318;6.202;2023-10-19T15:55:19;16.90;99.90
3281;DHT22;1652;51.318;6.202;2023-10-19T15:57:49;16.90;99.90
3281;DHT22;1652;51.318;6.202;2023-10-19T16:00:17;16.80;99.90
3281;DHT22;1652;51.318;6.202;2023-10-19T16:02:45;16.80;99.90
3281;DHT22;1652;51.318;6.202;2023-10-19T16:05:12;16.80;99.90
3281;DHT22;1652;51.318;6.202;2023-10-19T16:07:42;16.70;99.90
3281;DHT22;1652;51.318;6.202;2023-10-19T16:10:10;16.60;99.90
3281;DHT22;1652;51.318;6.202;2023-10-19T16:12:40;16.60;99.90
3281;DHT22;1652;51.318;6.202;2023-10-19T16:15:09;16.50;99.90
3281;DHT22;1652;51.318;6.202;2023-10-19T16:17:36;16.50;99.90
3281;DHT22;1652;51.318;6.202;2023-10-19T16:20:04;16.40;99.90
3281;DHT22;1652;51.318;6.202;2023-10-19T16:22:34;16.20;99.90
3281;DHT22;1652;51.318;6.202;2023-10-19T16:25:02;16.10;99.90
3281;DHT22;1652;51.318;6.202;2023-10-19T16:27:30;16.10;99.90
3281;DHT22;1652;51.318;6.202;2023-10-19T16:29:57;16.00;99.90
3281;DHT22;1652;51.318;6.202;2023-10-19T16:32:24;16.00;99.90
3281;DHT22;1652;51.318;6.202;2023-10-19T16:34:51;15.90;99.90
3281;DHT22;1652;51.318;6.202;2023-10-19T16:37:19;15.80;99.90
3281;DHT22;1652;51.318;6.202;2023-10-19T16:39:49;15.80;99.90
3281;DHT22;1652;51.318;6.202;2023-10-19T16:42:16;15.80;99.90
3281;DHT22;1652;51.318;6.202;2023-10-19T16:44:43;15.80;99.90
3281;DHT22;1652;51.318;6.202;2023-10-19T16:47:10;15.60;99.90
3281;DHT22;1652;51.318;6.202;2023-10-19T16:49:38;15.60;99.90
3281;DHT22;1652;51.318;6.202;2023-10-19T16:52:06;15.60;99.90
3281;DHT22;1652;51.318;6.202;2023-10-19T16:54:34;15.70;99.90
3281;DHT22;1652;51.318;6.202;2023-10-19T16:57:01;15.60;99.90
3281;DHT22;1652;51.318;6.202;2023-10-19T16:59:28;15.50;99.90
3281;DHT22;1652;51.318;6.202;2023-10-19T17:01:57;15.60;99.90